sensor_id;sensor_type;location;lat;lon;timestamp;temperature;humidity
10905;DHT22;5505;51.450;9.254;2024-01-07T00:00:55;2.90;99.90
10905;DHT22;5505;51.450;9.254;2024-01-07T00:03:42;1.60;99.90
10905;DHT22;5505;51.450;9.254;2024-01-07T00:06:29;1.60;99.90
10905;DHT22;5505;51.450;9.254;2024-01-07T00:09:17;1.60;99.90
10905;DHT22;5505;51.450;9.254;2024-01-07T00:12:05;1.90;99.90
10905;DHT22;5505;51.450;9.254;2024-01-07T00:14:52;1.60;99.90
10905;DHT22;5505;51.450;9.254;2024-01-07T00:17:38;1.60;99.90
10905;DHT22;5505;51.450;9.254;2024-01-07T00:20:25;1.60;99.90
10905;DHT22;5505;51.450;9.254;2024-01-07T00:23:12;1.60;99.90
10905;DHT22;5505;51.450;9.254;2024-01-07T00:26:00;1.60;99.90
10905;DHT22;5505;51.450;9.254;2024-01-07T00:28:48;2.90;99.90
10905;DHT22;5505;51.450;9.254;2024-01-07T00:31:35;1.60;99.90
10905;DHT22;5505;51.450;9.254;2024-01-07T00:34:21;1.60;99.90
10905;DHT22;5505;51.450;9.254;2024-01-07T00:37:08;1.60;99.90
10905;DHT22;5505;51.450;9.254;2024-01-07T00:39:55;1.70;99.90
10905;DHT22;5505;51.450;9.254;2024-01-07T00:42:43;1.70;99.90
10905;DHT22;5505;51.450;9.254;2024-01-07T00:45:30;1.60;99.90
10905;DHT22;5505;51.450;9.254;2024-01-07T00:48:17;1.60;99.90
10905;DHT22;5505;51.450;9.254;2024-01-07T00:51:04;1.50;99.90
10905;DHT22;5505;51.450;9.254;2024-01-07T00:53:51;2.40;99.90
10905;DHT22;5505;51.450;9.254;2024-01-07T00:56:41;1.50;99.90
10905;DHT22;5505;51.450;9.254;2024-01-07T00:59:29;1.30;99.90
10905;DHT22;5505;51.450;9.254;2024-01-07T01:02:16;1.40;99.90
10905;DHT22;5505;51.450;9.254;2024-01-07T01:05:04;1.30;99.90
10905;DHT22;5505;51.450;9.254;2024-01-07T01:07:51;1.30;99.90
10905;DHT22;5505;51.450;9.254;2024-01-07T01:10:38;1.50;99.90
10905;DHT22;5505;51.450;9.254;2024-01-07T01:13:25;1.20;99.90
10905;DHT22;5505;51.450;9.254;2024-01-07T01:16:13;1.20;99.90
10905;DHT22;5505;51.450;9.254;2024-01-07T01:19:00;1.10;99.90
10905;DHT22;5505;51.450;9.254;2024-01-07T01:21:47;1.20;99.90
10905;DHT22;5505;51.450;9.254;2024-01-07T01:24:33;1.20;99.90
10905;DHT22;5505;51.450;9.254;2024-01-07T01:27:20;1.20;99.90
10905;DHT22;5505;51.450;9.254;2024-01-07T01:30:08;1.20;99.90
10905;DHT22;5505;51.450;9.254;2024-01-07T01:32:56;1.10;99.90
10905;DHT22;5505;51.450;9.254;2024-01-07T01:35:43;1.10;99.90
10905;DHT22;5505;51.450;9.254;2024-01-07T01:38:30;1.10;99.90
10905;DHT22;5505;51.450;9.254;2024-01-07T01:41:17;1.10;99.90
10905;DHT22;5505;51.450;9.254;2024-01-07T01:44:04;1.10;99.90
10905;DHT22;5505;51.450;9.254;2024-01-07T01:46:51;1.10;99.90
10905;DHT22;5505;51.450;9.254;2024-01-07T01:49:39;1.20;99.90
10905;DHT22;5505;51.450;9.254;2024-01-07T01:52:27;1.30;99.90
10905;DHT22;5505;51.450;9.254;2024-01-07T01:55:14;1.10;99.90
10905;DHT22;5505;51.450;9.254;2024-01-07T01:58:01;1.20;99.90
10905;DHT22;5505;51.450;9.254;2024-01-07T02:00:49;1.30;99.90
10905;DHT22;5505;51.450;9.254;2024-01-07T02:03:37;1.00;99.90
10905;DHT22;5505;51.450;9.254;2024-01-07T02:06:25;1.00;99.90
10905;DHT22;5505;51.450;9.254;2024-01-07T02:09:12;1.00;99.90
10905;DHT22;5505;51.450;9.254;2024-01-07T02:12:03;1.00;99.90
10905;DHT22;5505;51.450;9.254;2024-01-07T02:14:50;0.90;99.90
10905;DHT22;5505;51.450;9.254;2024-01-07T02:17:37;0.90;99.90
10905;DHT22;5505;51.450;9.254;2024-01-07T02:20:24;1.00;99.90
10905;DHT22;5505;51.450;9.254;2024-01-07T02:23:12;0.90;99.90
10905;DHT22;5505;51.450;9.254;2024-01-07T02:26:00;0.90;99.90
10905;DHT22;5505;51.450;9.254;2024-01-07T02:28:47;0.80;99.90
10905;DHT22;5505;51.450;9.254;2024-01-07T02:31:34;0.80;99.90
10905;DHT22;5505;51.450;9.254;2024-01-07T02:34:21;0.80;99.90
10905;DHT22;5505;51.450;9.254;2024-01-07T02:37:07;0.90;99.90
10905;DHT22;5505;51.450;9.254;2024-01-07T02:39:54;1.30;99.90
10905;DHT22;5505;51.450;9.254;2024-01-07T02:42:42;0.90;99.90
10905;DHT22;5505;51.450;9.254;2024-01-07T02:45:29;0.80;99.90
10905;DHT22;5505;51.450;9.254;2024-01-07T02:48:16;1.80;99.90
10905;DHT22;5505;51.450;9.254;2024-01-07T02:51:03;0.90;99.90
10905;DHT22;5505;51.450;9.254;2024-01-07T02:53:51;0.70;99.90
10905;DHT22;5505;51.450;9.254;2024-01-07T02:56:37;0.60;99.90
10905;DHT22;5505;51.450;9.254;2024-01-07T02:59:26;2.70;99.90
10905;DHT22;5505;51.450;9.254;2024-01-07T03:02:12;0.70;99.90
10905;DHT22;5505;51.450;9.254;2024-01-07T03:04:59;0.70;99.90
10905;DHT22;5505;51.450;9.254;2024-01-07T03:07:46;0.70;99.90
10905;DHT22;5505;51.450;9.254;2024-01-07T03:10:34;0.60;99.90
10905;DHT22;5505;51.450;9.254;2024-01-07T03:13:21;0.60;99.90
10905;DHT22;5505;51.450;9.254;2024-01-07T03:16:19;0.60;99.90
10905;DHT22;5505;51.450;9.254;2024-01-07T03:19:06;0.60;99.90
10905;DHT22;5505;51.450;9.254;2024-01-07T03:21:53;0.60;99.90
10905;DHT22;5505;51.450;9.254;2024-01-07T03:24:41;0.60;99.90
10905;DHT22;5505;51.450;9.254;2024-01-07T03:27:28;0.60;99.90
10905;DHT22;5505;51.450;9.254;2024-01-07T03:30:15;2.70;99.90
10905;DHT22;5505;51.450;9.254;2024-01-07T03:33:04;0.60;99.90
10905;DHT22;5505;51.450;9.254;2024-01-07T03:35:50;0.60;99.90
10905;DHT22;5505;51.450;9.254;2024-01-07T03:38:38;2.50;99.90
10905;DHT22;5505;51.450;9.254;2024-01-07T03:41:25;0.50;99.90
10905;DHT22;5505;51.450;9.254;2024-01-07T03:44:12;0.50;99.90
10905;DHT22;5505;51.450;9.254;2024-01-07T03:47:00;0.50;99.90
10905;DHT22;5505;51.450;9.254;2024-01-07T03:49:48;0.50;99.90
10905;DHT22;5505;51.450;9.254;2024-01-07T03:52:35;0.50;99.90
10905;DHT22;5505;51.450;9.254;2024-01-07T03:55:21;0.50;99.90
10905;DHT22;5505;51.450;9.254;2024-01-07T03:58:08;0.40;99.90
10905;DHT22;5505;51.450;9.254;2024-01-07T04:00:55;0.40;99.90
10905;DHT22;5505;51.450;9.254;2024-01-07T04:03:42;2.20;99.90
10905;DHT22;5505;51.450;9.254;2024-01-07T04:06:30;0.40;99.90
10905;DHT22;5505;51.450;9.254;2024-01-07T04:09:17;0.40;99.90
10905;DHT22;5505;51.450;9.254;2024-01-07T04:12:04;0.40;99.90
10905;DHT22;5505;51.450;9.254;2024-01-07T04:14:52;0.30;99.90
10905;DHT22;5505;51.450;9.254;2024-01-07T04:17:39;0.30;99.90
10905;DHT22;5505;51.450;9.254;2024-01-07T04:20:26;0.30;99.90
10905;DHT22;5505;51.450;9.254;2024-01-07T04:23:14;0.30;99.90
10905;DHT22;5505;51.450;9.254;2024-01-07T04:26:01;0.30;99.90
10905;DHT22;5505;51.450;9.254;2024-01-07T04:28:47;0.20;99.90
10905;DHT22;5505;51.450;9.254;2024-01-07T04:31:34;0.20;99.90
10905;DHT22;5505;51.450;9.254;2024-01-07T04:34:21;0.10;99.90
10905;DHT22;5505;51.450;9.254;2024-01-07T04:37:08;2.10;99.90
10905;DHT22;5505;51.450;9.254;2024-01-07T04:39:56;0.20;99.90
10905;DHT22;5505;51.450;9.254;2024-01-07T04:42:43;1.10;99.90
10905;DHT22;5505;51.450;9.254;2024-01-07T04:45:30;0.20;99.90
10905;DHT22;5505;51.450;9.254;2024-01-07T04:48:17;0.20;99.90
10905;DHT22;5505;51.450;9.254;2024-01-07T04:51:04;0.10;99.90
10905;DHT22;5505;51.450;9.254;2024-01-07T04:53:51;0.10;99.90
10905;DHT22;5505;51.450;9.254;2024-01-07T04:56:39;0.10;99.90
10905;DHT22;5505;51.450;9.254;2024-01-07T04:59:26;0.10;99.90
10905;DHT22;5505;51.450;9.254;2024-01-07T05:02:13;0.10;99.90
10905;DHT22;5505;51.450;9.254;2024-01-07T05:05:00;0.30;99.90
10905;DHT22;5505;51.450;9.254;2024-01-07T05:07:47;0.00;99.90
10905;DHT22;5505;51.450;9.254;2024-01-07T05:10:33;0.10;99.90
10905;DHT22;5505;51.450;9.254;2024-01-07T05:13:22;0.00;99.90
10905;DHT22;5505;51.450;9.254;2024-01-07T05:16:08;-0.20;99.90
10905;DHT22;5505;51.450;9.254;2024-01-07T05:18:55;-0.20;99.90
10905;DHT22;5505;51.450;9.254;2024-01-07T05:21:42;-0.20;99.90
10905;DHT22;5505;51.450;9.254;2024-01-07T05:24:29;-0.20;99.90
10905;DHT22;5505;51.450;9.254;2024-01-07T05:27:16;-0.20;99.90
10905;DHT22;5505;51.450;9.254;2024-01-07T05:30:05;-0.10;99.90
10905;DHT22;5505;51.450;9.254;2024-01-07T05:32:53;-0.30;99.90
10905;DHT22;5505;51.450;9.254;2024-01-07T05:35:40;-0.30;99.90
10905;DHT22;5505;51.450;9.254;2024-01-07T05:38:27;-0.40;99.90
10905;DHT22;5505;51.450;9.254;2024-01-07T05:41:14;-0.30;99.90
10905;DHT22;5505;51.450;9.254;2024-01-07T05:44:00;-0.30;99.90
10905;DHT22;5505;51.450;9.254;2024-01-07T05:46:49;-0.20;99.90
10905;DHT22;5505;51.450;9.254;2024-01-07T05:49:35;-0.20;99.90
10905;DHT22;5505;51.450;9.254;2024-01-07T05:52:22;1.30;99.90
10905;DHT22;5505;51.450;9.254;2024-01-07T05:55:09;-0.50;99.90
10905;DHT22;5505;51.450;9.254;2024-01-07T05:57:56;-0.40;99.90
10905;DHT22;5505;51.450;9.254;2024-01-07T06:00:43;-0.40;99.90
10905;DHT22;5505;51.450;9.254;2024-01-07T06:03:31;2.30;99.90
10905;DHT22;5505;51.450;9.254;2024-01-07T06:06:19;-0.50;99.90
10905;DHT22;5505;51.450;9.254;2024-01-07T06:09:05;-0.50;99.90
10905;DHT22;5505;51.450;9.254;2024-01-07T06:11:52;-0.60;99.90
10905;DHT22;5505;51.450;9.254;2024-01-07T06:14:39;-0.50;99.90
10905;DHT22;5505;51.450;9.254;2024-01-07T06:17:26;-0.50;99.90
10905;DHT22;5505;51.450;9.254;2024-01-07T06:20:14;-0.70;99.90
10905;DHT22;5505;51.450;9.254;2024-01-07T06:23:02;-0.60;99.90
10905;DHT22;5505;51.450;9.254;2024-01-07T06:25:48;-0.60;99.90
10905;DHT22;5505;51.450;9.254;2024-01-07T06:28:35;-1.70;99.90
10905;DHT22;5505;51.450;9.254;2024-01-07T06:31:22;-0.70;99.90
10905;DHT22;5505;51.450;9.254;2024-01-07T06:34:09;1.50;99.90
10905;DHT22;5505;51.450;9.254;2024-01-07T06:37:00;-0.60;99.90
10905;DHT22;5505;51.450;9.254;2024-01-07T06:39:47;-0.60;99.90
10905;DHT22;5505;51.450;9.254;2024-01-07T06:42:34;-0.60;99.90
10905;DHT22;5505;51.450;9.254;2024-01-07T06:45:21;-0.70;99.90
10905;DHT22;5505;51.450;9.254;2024-01-07T06:48:08;-0.70;99.90
10905;DHT22;5505;51.450;9.254;2024-01-07T06:50:54;-0.80;99.90
10905;DHT22;5505;51.450;9.254;2024-01-07T06:53:43;-0.70;99.90
10905;DHT22;5505;51.450;9.254;2024-01-07T06:56:30;-0.80;99.90
10905;DHT22;5505;51.450;9.254;2024-01-07T06:59:16;-0.80;99.90
10905;DHT22;5505;51.450;9.254;2024-01-07T07:02:03;-0.90;99.90
10905;DHT22;5505;51.450;9.254;2024-01-07T07:04:50;-1.10;99.90
10905;DHT22;5505;51.450;9.254;2024-01-07T07:07:37;-1.00;99.90
10905;DHT22;5505;51.450;9.254;2024-01-07T07:10:25;0.20;99.90
10905;DHT22;5505;51.450;9.254;2024-01-07T07:13:13;-1.00;99.90
10905;DHT22;5505;51.450;9.254;2024-01-07T07:16:00;-0.50;99.90
10905;DHT22;5505;51.450;9.254;2024-01-07T07:18:47;-1.10;99.90
10905;DHT22;5505;51.450;9.254;2024-01-07T07:21:34;-1.10;99.90
10905;DHT22;5505;51.450;9.254;2024-01-07T07:24:20;-1.10;99.90
10905;DHT22;5505;51.450;9.254;2024-01-07T07:27:09;-1.00;99.90
10905;DHT22;5505;51.450;9.254;2024-01-07T07:29:56;-1.10;99.90
10905;DHT22;5505;51.450;9.254;2024-01-07T07:32:43;-1.10;99.90
10905;DHT22;5505;51.450;9.254;2024-01-07T07:35:30;-1.20;99.90
10905;DHT22;5505;51.450;9.254;2024-01-07T07:38:16;-1.10;99.90
10905;DHT22;5505;51.450;9.254;2024-01-07T07:41:03;-1.10;99.90
10905;DHT22;5505;51.450;9.254;2024-01-07T07:43:52;-1.20;99.90
10905;DHT22;5505;51.450;9.254;2024-01-07T07:46:40;-1.10;99.90
10905;DHT22;5505;51.450;9.254;2024-01-07T07:49:26;-1.10;99.90
10905;DHT22;5505;51.450;9.254;2024-01-07T07:52:13;1.00;99.90
10905;DHT22;5505;51.450;9.254;2024-01-07T07:55:00;-1.10;99.90
10905;DHT22;5505;51.450;9.254;2024-01-07T07:57:47;0.80;99.90
10905;DHT22;5505;51.450;9.254;2024-01-07T08:00:35;-1.20;99.90
10905;DHT22;5505;51.450;9.254;2024-01-07T08:03:22;-1.10;99.90
10905;DHT22;5505;51.450;9.254;2024-01-07T08:06:09;-1.20;99.90
10905;DHT22;5505;51.450;9.254;2024-01-07T08:08:56;-1.20;99.90
10905;DHT22;5505;51.450;9.254;2024-01-07T08:11:43;-1.30;99.90
10905;DHT22;5505;51.450;9.254;2024-01-07T08:14:30;-1.20;99.90
10905;DHT22;5505;51.450;9.254;2024-01-07T08:17:18;0.80;99.90
10905;DHT22;5505;51.450;9.254;2024-01-07T08:20:06;1.20;99.90
10905;DHT22;5505;51.450;9.254;2024-01-07T08:22:54;-1.30;99.90
10905;DHT22;5505;51.450;9.254;2024-01-07T08:25:41;-1.30;99.90
10905;DHT22;5505;51.450;9.254;2024-01-07T08:28:28;-1.30;99.90
10905;DHT22;5505;51.450;9.254;2024-01-07T08:31:14;-1.30;99.90
10905;DHT22;5505;51.450;9.254;2024-01-07T08:34:03;-1.40;99.90
10905;DHT22;5505;51.450;9.254;2024-01-07T08:36:49;-1.40;99.90
10905;DHT22;5505;51.450;9.254;2024-01-07T08:39:36;-1.30;99.90
10905;DHT22;5505;51.450;9.254;2024-01-07T08:42:23;-0.40;99.90
10905;DHT22;5505;51.450;9.254;2024-01-07T08:45:10;0.30;99.90
10905;DHT22;5505;51.450;9.254;2024-01-07T08:47:57;-1.40;99.90
10905;DHT22;5505;51.450;9.254;2024-01-07T08:50:45;-1.40;99.90
10905;DHT22;5505;51.450;9.254;2024-01-07T08:53:32;-1.30;99.90
10905;DHT22;5505;51.450;9.254;2024-01-07T08:56:19;-1.30;99.90
10905;DHT22;5505;51.450;9.254;2024-01-07T08:59:05;-1.40;99.90
10905;DHT22;5505;51.450;9.254;2024-01-07T09:01:53;-1.40;99.90
10905;DHT22;5505;51.450;9.254;2024-01-07T09:04:40;-1.40;99.90
10905;DHT22;5505;51.450;9.254;2024-01-07T09:07:28;-1.50;99.90
10905;DHT22;5505;51.450;9.254;2024-01-07T09:10:15;-1.50;99.90
10905;DHT22;5505;51.450;9.254;2024-01-07T09:13:04;-1.60;99.90
10905;DHT22;5505;51.450;9.254;2024-01-07T09:15:51;-0.50;99.90
10905;DHT22;5505;51.450;9.254;2024-01-07T09:18:38;-1.60;99.90
10905;DHT22;5505;51.450;9.254;2024-01-07T09:21:25;-1.60;99.90
10905;DHT22;5505;51.450;9.254;2024-01-07T09:24:14;-1.40;99.90
10905;DHT22;5505;51.450;9.254;2024-01-07T09:27:01;-1.70;99.90
10905;DHT22;5505;51.450;9.254;2024-01-07T09:29:48;-1.70;99.90
10905;DHT22;5505;51.450;9.254;2024-01-07T09:32:35;-1.80;99.90
10905;DHT22;5505;51.450;9.254;2024-01-07T09:35:22;-1.90;99.90
10905;DHT22;5505;51.450;9.254;2024-01-07T09:38:09;-1.80;99.90
10905;DHT22;5505;51.450;9.254;2024-01-07T09:40:57;-1.90;99.90
10905;DHT22;5505;51.450;9.254;2024-01-07T09:43:44;-1.80;99.90
10905;DHT22;5505;51.450;9.254;2024-01-07T09:46:32;-1.90;99.90
10905;DHT22;5505;51.450;9.254;2024-01-07T09:49:21;-1.90;99.90
10905;DHT22;5505;51.450;9.254;2024-01-07T09:52:09;-1.80;99.90
10905;DHT22;5505;51.450;9.254;2024-01-07T09:55:00;-1.80;99.90
10905;DHT22;5505;51.450;9.254;2024-01-07T09:57:50;-1.80;99.90
10905;DHT22;5505;51.450;9.254;2024-01-07T10:00:38;-1.80;99.90
10905;DHT22;5505;51.450;9.254;2024-01-07T10:03:25;-1.80;99.90
10905;DHT22;5505;51.450;9.254;2024-01-07T10:06:12;-1.80;99.90
10905;DHT22;5505;51.450;9.254;2024-01-07T10:08:59;-1.90;99.90
10905;DHT22;5505;51.450;9.254;2024-01-07T10:11:46;-1.90;99.90
10905;DHT22;5505;51.450;9.254;2024-01-07T10:14:34;-1.90;99.90
10905;DHT22;5505;51.450;9.254;2024-01-07T10:17:21;-2.00;99.90
10905;DHT22;5505;51.450;9.254;2024-01-07T10:20:13;-2.00;99.90
10905;DHT22;5505;51.450;9.254;2024-01-07T10:23:00;-2.00;99.90
10905;DHT22;5505;51.450;9.254;2024-01-07T10:25:48;-2.00;99.90
10905;DHT22;5505;51.450;9.254;2024-01-07T10:28:34;-2.00;99.90
10905;DHT22;5505;51.450;9.254;2024-01-07T10:31:23;-2.00;99.90
10905;DHT22;5505;51.450;9.254;2024-01-07T10:34:10;-2.00;99.90
10905;DHT22;5505;51.450;9.254;2024-01-07T10:36:59;-2.00;99.90
10905;DHT22;5505;51.450;9.254;2024-01-07T10:39:46;-1.90;99.90
10905;DHT22;5505;51.450;9.254;2024-01-07T10:42:35;-1.90;99.90
10905;DHT22;5505;51.450;9.254;2024-01-07T10:45:22;-2.10;99.90
10905;DHT22;5505;51.450;9.254;2024-01-07T10:48:10;-2.10;99.90
10905;DHT22;5505;51.450;9.254;2024-01-07T10:50:59;-2.20;99.90
10905;DHT22;5505;51.450;9.254;2024-01-07T10:53:52;-2.20;99.90
10905;DHT22;5505;51.450;9.254;2024-01-07T10:56:45;-2.30;99.90
10905;DHT22;5505;51.450;9.254;2024-01-07T10:59:32;-2.30;99.90
10905;DHT22;5505;51.450;9.254;2024-01-07T11:02:20;-2.30;99.90
10905;DHT22;5505;51.450;9.254;2024-01-07T11:05:15;-2.20;99.90
10905;DHT22;5505;51.450;9.254;2024-01-07T11:08:10;-2.20;99.90
10905;DHT22;5505;51.450;9.254;2024-01-07T11:11:03;0.30;99.90
10905;DHT22;5505;51.450;9.254;2024-01-07T11:13:52;-2.10;99.90
10905;DHT22;5505;51.450;9.254;2024-01-07T11:16:42;-2.20;99.90
10905;DHT22;5505;51.450;9.254;2024-01-07T11:19:30;-2.20;99.90
10905;DHT22;5505;51.450;9.254;2024-01-07T11:22:26;-2.20;99.90
10905;DHT22;5505;51.450;9.254;2024-01-07T11:25:30;-2.30;99.90
10905;DHT22;5505;51.450;9.254;2024-01-07T11:28:17;-2.30;99.90
10905;DHT22;5505;51.450;9.254;2024-01-07T11:31:04;-2.30;99.90
10905;DHT22;5505;51.450;9.254;2024-01-07T11:33:51;-2.30;99.90
10905;DHT22;5505;51.450;9.254;2024-01-07T11:36:38;-2.30;99.90
10905;DHT22;5505;51.450;9.254;2024-01-07T11:39:26;-2.30;99.90
10905;DHT22;5505;51.450;9.254;2024-01-07T11:42:13;-2.20;99.90
10905;DHT22;5505;51.450;9.254;2024-01-07T11:45:00;-2.20;99.90
10905;DHT22;5505;51.450;9.254;2024-01-07T11:47:48;-2.20;98.40
10905;DHT22;5505;51.450;9.254;2024-01-07T11:50:35;-2.20;99.90
10905;DHT22;5505;51.450;9.254;2024-01-07T11:53:22;-2.20;93.70
10905;DHT22;5505;51.450;9.254;2024-01-07T11:56:11;-2.30;98.00
10905;DHT22;5505;51.450;9.254;2024-01-07T11:58:58;-2.20;99.90
10905;DHT22;5505;51.450;9.254;2024-01-07T12:01:46;-2.10;99.90
10905;DHT22;5505;51.450;9.254;2024-01-07T12:04:33;-2.10;89.00
10905;DHT22;5505;51.450;9.254;2024-01-07T12:07:20;-2.10;84.90
10905;DHT22;5505;51.450;9.254;2024-01-07T12:10:08;-2.10;88.80
10905;DHT22;5505;51.450;9.254;2024-01-07T12:12:58;-2.10;75.00
10905;DHT22;5505;51.450;9.254;2024-01-07T12:15:46;-2.30;56.80
10905;DHT22;5505;51.450;9.254;2024-01-07T12:18:33;-2.20;92.30
10905;DHT22;5505;51.450;9.254;2024-01-07T12:21:20;-1.60;79.50
10905;DHT22;5505;51.450;9.254;2024-01-07T12:24:07;-2.10;96.30
10905;DHT22;5505;51.450;9.254;2024-01-07T12:26:54;-1.30;97.20
10905;DHT22;5505;51.450;9.254;2024-01-07T12:29:43;-2.10;95.80
10905;DHT22;5505;51.450;9.254;2024-01-07T12:32:30;-2.00;88.20
10905;DHT22;5505;51.450;9.254;2024-01-07T12:35:17;-2.00;90.60
10905;DHT22;5505;51.450;9.254;2024-01-07T12:38:05;-2.10;88.20
10905;DHT22;5505;51.450;9.254;2024-01-07T12:40:52;-2.10;74.40
10905;DHT22;5505;51.450;9.254;2024-01-07T12:43:39;-2.10;54.10
10905;DHT22;5505;51.450;9.254;2024-01-07T12:46:27;-2.10;84.90
10905;DHT22;5505;51.450;9.254;2024-01-07T12:49:14;-2.10;90.50
10905;DHT22;5505;51.450;9.254;2024-01-07T12:52:01;-2.10;97.10
10905;DHT22;5505;51.450;9.254;2024-01-07T12:54:48;-0.50;98.10
10905;DHT22;5505;51.450;9.254;2024-01-07T12:57:35;-2.10;87.20
10905;DHT22;5505;51.450;9.254;2024-01-07T13:00:22;-2.10;65.90
10905;DHT22;5505;51.450;9.254;2024-01-07T13:03:10;-2.10;76.20
10905;DHT22;5505;51.450;9.254;2024-01-07T13:06:02;-2.10;91.80
10905;DHT22;5505;51.450;9.254;2024-01-07T13:08:49;-2.10;99.00
10905;DHT22;5505;51.450;9.254;2024-01-07T13:11:37;-2.10;95.80
10905;DHT22;5505;51.450;9.254;2024-01-07T13:14:24;-2.00;91.20
10905;DHT22;5505;51.450;9.254;2024-01-07T13:17:11;-2.10;98.00
10905;DHT22;5505;51.450;9.254;2024-01-07T13:20:00;-2.10;95.00
10905;DHT22;5505;51.450;9.254;2024-01-07T13:22:47;0.00;99.90
10905;DHT22;5505;51.450;9.254;2024-01-07T13:25:34;-2.10;94.40
10905;DHT22;5505;51.450;9.254;2024-01-07T13:28:20;-2.10;93.80
10905;DHT22;5505;51.450;9.254;2024-01-07T13:31:08;-2.10;94.60
10905;DHT22;5505;51.450;9.254;2024-01-07T13:33:57;-2.10;81.10
10905;DHT22;5505;51.450;9.254;2024-01-07T13:36:45;-2.10;83.20
10905;DHT22;5505;51.450;9.254;2024-01-07T13:39:32;-2.10;77.20
10905;DHT22;5505;51.450;9.254;2024-01-07T13:42:19;-2.10;85.50
10905;DHT22;5505;51.450;9.254;2024-01-07T13:45:06;-1.00;80.60
10905;DHT22;5505;51.450;9.254;2024-01-07T13:47:53;-2.20;85.70
10905;DHT22;5505;51.450;9.254;2024-01-07T13:50:40;-2.20;86.50
10905;DHT22;5505;51.450;9.254;2024-01-07T13:53:29;-1.00;89.60
10905;DHT22;5505;51.450;9.254;2024-01-07T13:56:16;-2.20;90.40
10905;DHT22;5505;51.450;9.254;2024-01-07T13:59:03;-2.20;99.60
10905;DHT22;5505;51.450;9.254;2024-01-07T14:01:50;-2.20;95.60
10905;DHT22;5505;51.450;9.254;2024-01-07T14:04:37;-2.20;91.10
10905;DHT22;5505;51.450;9.254;2024-01-07T14:07:25;-2.20;95.20
10905;DHT22;5505;51.450;9.254;2024-01-07T14:10:14;-2.20;90.70
10905;DHT22;5505;51.450;9.254;2024-01-07T14:13:01;-2.20;91.40
10905;DHT22;5505;51.450;9.254;2024-01-07T14:15:48;-2.20;97.40
10905;DHT22;5505;51.450;9.254;2024-01-07T14:18:35;-2.10;91.90
10905;DHT22;5505;51.450;9.254;2024-01-07T14:21:22;-1.50;83.50
10905;DHT22;5505;51.450;9.254;2024-01-07T14:24:08;-1.80;93.00
10905;DHT22;5505;51.450;9.254;2024-01-07T14:26:57;-2.20;74.70
10905;DHT22;5505;51.450;9.254;2024-01-07T14:29:44;-2.20;78.40
10905;DHT22;5505;51.450;9.254;2024-01-07T14:32:33;-2.20;96.00
10905;DHT22;5505;51.450;9.254;2024-01-07T14:35:22;-2.20;82.90
10905;DHT22;5505;51.450;9.254;2024-01-07T14:38:10;-2.20;99.90
10905;DHT22;5505;51.450;9.254;2024-01-07T14:40:56;-2.20;99.00
10905;DHT22;5505;51.450;9.254;2024-01-07T14:43:45;-2.20;97.80
10905;DHT22;5505;51.450;9.254;2024-01-07T14:46:31;-2.10;99.90
10905;DHT22;5505;51.450;9.254;2024-01-07T14:49:18;-2.10;99.90
10905;DHT22;5505;51.450;9.254;2024-01-07T14:52:05;-2.10;91.10
10905;DHT22;5505;51.450;9.254;2024-01-07T14:54:52;-2.10;99.90
10905;DHT22;5505;51.450;9.254;2024-01-07T14:57:39;-2.10;98.30
10905;DHT22;5505;51.450;9.254;2024-01-07T15:00:27;-2.10;95.20
10905;DHT22;5505;51.450;9.254;2024-01-07T15:03:14;-2.10;96.50
10905;DHT22;5505;51.450;9.254;2024-01-07T15:06:02;-2.10;99.90
10905;DHT22;5505;51.450;9.254;2024-01-07T15:08:49;-2.10;99.90
10905;DHT22;5505;51.450;9.254;2024-01-07T15:11:37;-2.20;99.30
10905;DHT22;5505;51.450;9.254;2024-01-07T15:14:27;-2.10;99.90
10905;DHT22;5505;51.450;9.254;2024-01-07T15:17:15;-2.10;99.90
10905;DHT22;5505;51.450;9.254;2024-01-07T15:20:04;-2.10;99.20
10905;DHT22;5505;51.450;9.254;2024-01-07T15:22:52;-2.10;98.40
10905;DHT22;5505;51.450;9.254;2024-01-07T15:25:39;-2.00;99.90
10905;DHT22;5505;51.450;9.254;2024-01-07T15:28:26;-2.00;99.90
10905;DHT22;5505;51.450;9.254;2024-01-07T15:31:13;-2.00;99.90
10905;DHT22;5505;51.450;9.254;2024-01-07T15:34:01;-2.00;99.90
10905;DHT22;5505;51.450;9.254;2024-01-07T15:36:48;-2.00;99.90
10905;DHT22;5505;51.450;9.254;2024-01-07T15:39:35;-2.00;99.90
10905;DHT22;5505;51.450;9.254;2024-01-07T15:42:22;-2.00;99.90
10905;DHT22;5505;51.450;9.254;2024-01-07T15:45:10;-2.00;99.90
10905;DHT22;5505;51.450;9.254;2024-01-07T15:47:57;-2.00;97.30
10905;DHT22;5505;51.450;9.254;2024-01-07T15:50:45;-2.00;98.50
10905;DHT22;5505;51.450;9.254;2024-01-07T15:53:32;-1.90;98.90
10905;DHT22;5505;51.450;9.254;2024-01-07T15:56:19;-1.90;99.20
10905;DHT22;5505;51.450;9.254;2024-01-07T15:59:06;-1.80;99.80
10905;DHT22;5505;51.450;9.254;2024-01-07T16:01:53;-1.90;99.50
10905;DHT22;5505;51.450;9.254;2024-01-07T16:04:41;-0.20;98.00
10905;DHT22;5505;51.450;9.254;2024-01-07T16:07:29;-1.90;99.90
10905;DHT22;5505;51.450;9.254;2024-01-07T16:10:16;-1.80;99.90
10905;DHT22;5505;51.450;9.254;2024-01-07T16:13:03;-1.80;99.90
10905;DHT22;5505;51.450;9.254;2024-01-07T16:15:51;-1.80;99.90
10905;DHT22;5505;51.450;9.254;2024-01-07T16:18:38;-1.90;99.90
10905;DHT22;5505;51.450;9.254;2024-01-07T16:21:25;-1.90;99.90
10905;DHT22;5505;51.450;9.254;2024-01-07T16:24:13;-1.90;99.90
10905;DHT22;5505;51.450;9.254;2024-01-07T16:27:00;-0.90;99.90
10905;DHT22;5505;51.450;9.254;2024-01-07T16:29:47;-1.90;99.90
10905;DHT22;5505;51.450;9.254;2024-01-07T16:32:34;-1.90;99.90
10905;DHT22;5505;51.450;9.254;2024-01-07T16:35:21;-1.90;99.90
10905;DHT22;5505;51.450;9.254;2024-01-07T16:38:08;-1.80;99.90
10905;DHT22;5505;51.450;9.254;2024-01-07T16:40:56;-1.80;99.90
10905;DHT22;5505;51.450;9.254;2024-01-07T16:43:43;-1.90;99.90
10905;DHT22;5505;51.450;9.254;2024-01-07T16:46:30;0.20;99.90
10905;DHT22;5505;51.450;9.254;2024-01-07T16:49:17;-1.80;99.90
10905;DHT22;5505;51.450;9.254;2024-01-07T16:52:04;-1.80;99.90
10905;DHT22;5505;51.450;9.254;2024-01-07T16:54:51;-1.80;99.90
10905;DHT22;5505;51.450;9.254;2024-01-07T16:57:39;-1.80;99.90
10905;DHT22;5505;51.450;9.254;2024-01-07T17:00:26;-1.80;99.90
10905;DHT22;5505;51.450;9.254;2024-01-07T17:03:13;-1.80;99.90
10905;DHT22;5505;51.450;9.254;2024-01-07T17:06:01;-1.80;99.90
10905;DHT22;5505;51.450;9.254;2024-01-07T17:08:49;-1.90;99.90
10905;DHT22;5505;51.450;9.254;2024-01-07T17:11:36;-1.90;99.90
10905;DHT22;5505;51.450;9.254;2024-01-07T17:14:25;-1.90;99.90
10905;DHT22;5505;51.450;9.254;2024-01-07T17:17:11;-4.10;99.90
10905;DHT22;5505;51.450;9.254;2024-01-07T17:19:58;-1.90;99.90
10905;DHT22;5505;51.450;9.254;2024-01-07T17:22:45;-0.30;99.90
10905;DHT22;5505;51.450;9.254;2024-01-07T17:25:32;-0.90;99.90
10905;DHT22;5505;51.450;9.254;2024-01-07T17:28:19;-1.90;99.90
10905;DHT22;5505;51.450;9.254;2024-01-07T17:31:08;-1.90;99.90
10905;DHT22;5505;51.450;9.254;2024-01-07T17:33:54;-1.90;99.90
10905;DHT22;5505;51.450;9.254;2024-01-07T17:36:41;-1.80;99.90
10905;DHT22;5505;51.450;9.254;2024-01-07T17:39:28;-1.80;99.90
10905;DHT22;5505;51.450;9.254;2024-01-07T17:42:18;-1.80;99.90
10905;DHT22;5505;51.450;9.254;2024-01-07T17:45:06;-1.90;99.90
10905;DHT22;5505;51.450;9.254;2024-01-07T17:47:55;-1.80;99.90
10905;DHT22;5505;51.450;9.254;2024-01-07T17:50:42;-1.80;99.90
10905;DHT22;5505;51.450;9.254;2024-01-07T17:53:30;-1.80;99.90
10905;DHT22;5505;51.450;9.254;2024-01-07T17:56:18;-1.10;99.90
10905;DHT22;5505;51.450;9.254;2024-01-07T17:59:05;0.10;99.90
10905;DHT22;5505;51.450;9.254;2024-01-07T18:01:53;-1.90;99.90